Au Sable Chasm, New York
Current Conditions -  °F | °C
As of 5:53 AM on Saturday 25 Oct 2014 (Local Time) from KPBG Reporting Station
Clear Clear  
Wind Chill: 44°   Ceiling: Unl
Heat Index: 44°   Visibility: 10mi
Dew Point: 39°   Wind: 0mph
Humidity: 82%   Direction: NA
Pressure: 29.76"   Gusts: NA
Location:  44.5125°N, 73.5235°W
Report Text: KPBG 250953Z AUTO 00000KT 10SM CLR 07/04 A2976 RMK AO2 SLP078 T00670039
Loading
Personal Weather Stations






























Interactive Weather Map
Tropical Storm Tracking
New forecast layout! Learn more

10-Day Weather Forecast

Advertisements
Track Severe Weather on mobile